Winschoten, Netherlands
Current Conditions -  °F | °C
As of 8:25 PM on Friday 21 Nov 2014 (Local Time) from EHGG Reporting Station
Clear Clear  
Wind Chill: 34°   Ceiling: Unl
Heat Index: 39°   Visibility: 6mi
Dew Point: 37°   Wind: 8mph
Humidity: 93%   Direction: 90°E
Pressure: 30.18"   Gusts: NA
Location:  53.14°N, 7.03°E
Report Text: EHGG 211925Z AUTO 09007KT 060V130 9000 NSC 04/03 Q1022 BECMG7000
Loading
Personal Weather Stations






























Interactive Weather Map New forecast layout! Learn more

10-Day Weather Forecast

Advertisements
Track Severe Weather on mobile